Garfield County Regional Airport
KRIL : now visible

Airfield :











YOU CAN JOIN US ON...

 
LOGIN :

Register | Disclaimer

   EN    FR    IT 

 









Legend :    VFR   Marginal VFR   IFR   Intensive IFR   Very Intensive IFR
Visi :
Ceiling :
>= 8 km
>= 3000ft
5 to 8 km
1000 to 3000 ft
1500m to 5 km
500 to 1000 ft
800 to 1500m
200 to 500 ft
< 800m
< 200 ft
Symbols :   Thunderstorms  Fog  Heavy snow  Heavy precipitations  Wind > 20 kt






- Airport Elevation : 5548 ft


KRIL - Garfield County Regional

CURRENT METAR :
  • 180653Z AUTO 00000KT 10SM SCT120 M03/M12 A3014 RMK AO2 SLP214 T10331117 400671039

EXPIRED METARs :
  • 180553Z AUTO 31003KT 10SM FEW095 M03/M11 A3012 RMK AO2 SLP208 T10281111 10028 21028 51009
  • 180453Z AUTO 27007KT 10SM FEW041 BKN100 M03/M09 A3011 RMK AO2 SLP208 T10281094

TAF KRIL
Valid from the 18 at 06:00 until the 19 at 06:00 UTC


180530Z 1806/1906 27006KT P6SM FEW040 BKN100
FM181000 VRB03KT P6SM SCT045 BKN150
FM181400 VRB03KT P6SM FEW060 SCT150
FM181800 00000KT P6SM FEW045 SCT200
FM182200 00000KT P6SM FEW060 FEW200



MET'MAP, your aeronautical weather chart ! - Copyright ORBIFLY December 2007 - Disclaimer

ORBIFLY MET'MAP TEAM :

Programming & Development : Alexandra Zaïnal
Concept & original design : Baudouin d'Aumeries
Assistance for programming : Marc-Olivier Méhu
Technical & hardware support : Manuel Goepfert

Contact : metmap@orbifly.com




SOURCES & CREDITS :

   NOAA       Earth
Advisory